Time;durP1;ratioP1;P1;durP2;ratioP2;P2;SDS_P1;SDS_P2;PMS_P1;PMS_P2;Temp;Humidity;BMP_temperature;BMP_pressure;BME280_temperature;BME280_humidity;BME280_pressure;Samples;Min_cycle;Max_cycle;Signal;HPM_P1;HPM_P2
2023/02/26 00:01:22;;;;;;;3.83;1.50;;;;;;;-1.59;77.64;96761.19;5057855;28;20442;-60
2023/02/26 00:03:50;;;;;;;2.85;1.48;;;;;;;-1.46;75.89;96764.00;5055538;28;20105;-61
2023/02/26 00:06:17;;;;;;;1.65;0.90;;;;;;;-1.44;76.63;96761.13;5061042;28;20681;-61
2023/02/26 00:08:44;;;;;;;5.72;1.70;;;;;;;-1.49;77.24;96756.38;5057156;28;20063;-60
2023/02/26 00:11:11;;;;;;;2.72;1.33;;;;;;;-1.61;77.21;96760.56;5065142;28;20036;-60
2023/02/26 00:13:39;;;;;;;3.63;1.73;;;;;;;-1.54;77.02;96768.59;5054446;28;20052;-59
2023/02/26 00:16:24;;;;;;;2.80;1.52;;;;;;;-1.49;75.98;96766.19;5056492;28;20041;-60
2023/02/26 00:18:51;;;;;;;4.78;1.55;;;;;;;-1.40;75.06;96765.03;5058814;28;20656;-60
2023/02/26 00:21:19;;;;;;;3.38;1.45;;;;;;;-1.49;75.97;96767.00;5059126;28;20044;-60
2023/02/26 00:23:46;;;;;;;3.10;1.40;;;;;;;-1.47;75.27;96764.16;5057363;28;20603;-60
2023/02/26 00:26:13;;;;;;;6.53;2.03;;;;;;;-1.48;76.17;96768.66;5051763;28;20511;-60
2023/02/26 00:28:40;;;;;;;3.25;1.65;;;;;;;-1.51;75.48;96768.22;5056588;28;20067;-60
2023/02/26 00:31:07;;;;;;;3.88;1.40;;;;;;;-1.47;75.07;96774.78;5055433;28;20045;-60
2023/02/26 00:33:35;;;;;;;2.15;1.27;;;;;;;-1.44;74.89;96777.03;5055372;28;20076;-60
2023/02/26 00:36:33;;;;;;;4.38;1.50;;;;;;;-1.58;74.96;96776.94;5054367;28;20041;-59
2023/02/26 00:39:13;;;;;;;5.55;1.85;;;;;;;-1.59;75.26;96771.78;5070031;28;20649;-59
2023/02/26 00:41:40;;;;;;;2.83;1.45;;;;;;;-1.59;74.97;96772.63;5054938;28;20040;-60
2023/02/26 00:44:07;;;;;;;3.90;1.70;;;;;;;-1.54;75.88;96777.38;5061911;28;20067;-61
2023/02/26 00:46:59;;;;;;;1.42;0.95;;;;;;;-1.54;75.09;96771.25;5049483;28;20041;-60
2023/02/26 00:49:32;;;;;;;;;;;;;;;-1.56;75.10;96768.78;5051727;28;20116;-60
2023/02/26 00:52:04;;;;;;;5.80;1.20;;;;;;;-1.52;75.65;96778.00;5054331;28;19982;-60
2023/02/26 00:54:30;;;;;;;;;;;;;;;-1.52;74.84;96778.00;5056920;28;20068;-61
2023/02/26 00:56:58;;;;;;;3.63;1.63;;;;;;;-1.62;75.05;96772.19;5056380;28;19978;-59
2023/02/26 00:59:24;;;;;;;12.15;2.00;;;;;;;-1.73;75.40;96776.97;5053136;28;20044;-61
2023/02/26 01:01:52;;;;;;;4.53;1.48;;;;;;;-1.74;76.44;96780.66;5059672;28;20041;-61
2023/02/26 01:04:21;;;;;;;3.55;1.30;;;;;;;-1.73;76.20;96774.31;5058787;28;20051;-60
2023/02/26 01:06:51;;;;;;;3.17;1.48;;;;;;;-1.73;75.62;96776.19;5053324;28;20045;-61
2023/02/26 01:09:26;;;;;;;2.78;1.10;;;;;;;-1.75;76.31;96770.22;5049759;28;20754;-59
2023/02/26 01:11:55;;;;;;;2.00;1.20;;;;;;;-1.75;75.38;96771.03;5055399;28;20036;-60
2023/02/26 01:14:22;;;;;;;2.83;1.35;;;;;;;-1.78;76.69;96781.19;5057171;28;20048;-61
2023/02/26 01:16:57;;;;;;;2.70;1.30;;;;;;;-1.80;75.64;96770.78;5054803;28;20040;-60
2023/02/26 01:19:32;;;;;;;4.88;1.30;;;;;;;-1.80;76.25;96777.94;5054814;28;20052;-60
2023/02/26 01:22:09;;;;;;;3.92;1.15;;;;;;;-1.84;76.73;96772.19;5053612;28;20132;-61
2023/02/26 01:24:36;;;;;;;2.58;1.48;;;;;;;-1.83;77.35;96776.47;5059477;28;20048;-60
2023/02/26 01:27:03;;;;;;;4.15;1.35;;;;;;;-1.86;78.19;96769.72;5053560;28;20052;-60
2023/02/26 01:29:29;;;;;;;2.75;1.30;;;;;;;-1.85;77.68;96766.03;5058450;28;23617;-60
2023/02/26 01:32:10;;;;;;;2.53;1.15;;;;;;;-1.83;76.46;96771.97;5048856;28;20086;-60
2023/02/26 01:35:02;;;;;;;3.30;1.47;;;;;;;-1.84;76.76;96770.31;5052363;28;20064;-59
2023/02/26 01:37:39;;;;;;;3.08;1.10;;;;;;;-1.86;77.20;96768.88;5056744;28;20471;-60
2023/02/26 01:40:24;;;;;;;1.73;0.90;;;;;;;-1.91;77.06;96765.97;5054146;28;20489;-61
2023/02/26 01:42:57;;;;;;;4.55;1.20;;;;;;;-1.89;76.58;96769.25;5054021;28;20048;-59
2023/02/26 01:45:32;;;;;;;2.13;1.17;;;;;;;-1.99;76.57;96765.06;5054797;28;20032;-61
2023/02/26 01:48:06;;;;;;;3.80;1.27;;;;;;;-2.01;76.81;96777.72;5058629;28;20483;-60
2023/02/26 01:50:37;;;;;;;4.55;1.40;;;;;;;-1.97;75.49;96780.81;5049354;28;20469;-60
2023/02/26 01:53:13;;;;;;;;;;;;;;;-2.05;75.93;96783.56;5053386;28;20048;-60
2023/02/26 01:55:43;;;;;;;3.20;1.00;;;;;;;-2.01;75.53;96776.88;5055925;28;19936;-60
2023/02/26 01:58:10;;;;;;;3.75;1.50;;;;;;;-2.07;76.09;96782.94;5053912;28;20048;-60
2023/02/26 02:00:36;;;;;;;2.30;1.30;;;;;;;-2.04;75.60;96780.72;5057447;28;20041;-58
2023/02/26 02:03:03;;;;;;;3.47;1.33;;;;;;;-2.15;76.26;96770.56;5057067;28;20036;-61
2023/02/26 02:05:44;;;;;;;2.15;1.23;;;;;;;-2.28;77.07;96776.56;5041559;28;20052;-61
2023/02/26 02:08:12;;;;;;;2.28;1.50;;;;;;;-2.39;77.08;96767.25;5057287;28;20044;-61
2023/02/26 02:10:43;;;;;;;2.58;1.30;;;;;;;-2.43;78.36;96771.28;5053200;28;20114;-61
2023/02/26 02:13:24;;;;;;;2.33;1.13;;;;;;;-2.45;78.58;96775.91;5054915;28;20198;-60
2023/02/26 02:16:11;;;;;;;2.28;1.17;;;;;;;-2.50;78.35;96774.63;5049733;28;20036;-61
2023/02/26 02:18:55;;;;;;;2.10;1.17;;;;;;;-2.49;78.08;96781.59;5049659;28;20064;-61
2023/02/26 02:21:36;;;;;;;3.05;1.50;;;;;;;-2.62;78.73;96779.59;5048941;28;20045;-60
2023/02/26 02:24:26;;;;;;;4.13;1.35;;;;;;;-2.59;78.75;96781.03;5063977;28;20036;-58
2023/02/26 02:27:06;;;;;;;6.03;1.15;;;;;;;-2.59;78.56;96790.84;5054629;28;20133;-61
2023/02/26 02:29:45;;;;;;;3.83;1.52;;;;;;;-2.64;78.48;96784.25;5053981;28;20493;-60
2023/02/26 02:32:38;;;;;;;4.80;1.50;;;;;;;-2.67;78.63;96794.38;5053587;28;20623;-60
2023/02/26 02:35:16;;;;;;;2.97;1.40;;;;;;;-2.76;82.06;96796.31;5055923;28;20079;-58
2023/02/26 02:37:49;;;;;;;2.95;1.27;;;;;;;-2.94;83.97;96794.81;5058463;28;20033;-60
2023/02/26 02:40:26;;;;;;;4.00;0.95;;;;;;;-3.17;84.72;96797.50;5055489;28;20120;-58
2023/02/26 02:43:16;;;;;;;3.00;1.40;;;;;;;-3.33;85.62;96796.63;5055615;28;20043;-60
2023/02/26 02:45:45;;;;;;;3.92;1.10;;;;;;;-3.37;86.76;96791.84;5055718;28;20028;-60
2023/02/26 02:48:15;;;;;;;4.57;1.42;;;;;;;-3.26;88.79;96802.03;5051880;28;20041;-60
2023/02/26 02:50:49;;;;;;;2.65;1.15;;;;;;;-3.33;89.54;96795.78;5051792;28;20085;-60
2023/02/26 02:53:27;;;;;;;4.57;1.67;;;;;;;-3.36;88.26;96796.19;5056311;28;20047;-59
2023/02/26 02:56:19;;;;;;;3.67;1.80;;;;;;;-3.42;87.80;96797.69;5054015;28;20044;-59
2023/02/26 02:58:52;;;;;;;4.40;1.27;;;;;;;-3.35;85.94;96797.81;5053721;28;20052;-60
2023/02/26 03:01:22;;;;;;;1.67;1.10;;;;;;;-3.39;84.75;96805.31;5048933;28;20564;-60
2023/02/26 03:04:10;;;;;;;3.88;1.33;;;;;;;-3.35;85.12;96803.94;5061463;28;20131;-59
2023/02/26 03:06:38;;;;;;;2.05;1.17;;;;;;;-3.35;85.71;96803.94;5053085;28;20040;-60
2023/02/26 03:09:07;;;;;;;2.90;1.30;;;;;;;-3.51;87.46;96814.66;5052907;28;20116;-59
2023/02/26 03:11:35;;;;;;;3.08;1.50;;;;;;;-3.49;88.65;96809.97;5052246;28;20063;-60
2023/02/26 03:14:03;;;;;;;6.25;1.65;;;;;;;-3.55;87.68;96808.88;5054065;28;20044;-59
2023/02/26 03:16:51;;;;;;;4.32;1.30;;;;;;;-3.67;89.02;96805.81;5057583;28;20041;-59
2023/02/26 03:19:20;;;;;;;2.85;1.25;;;;;;;-3.84;89.76;96803.25;5055469;28;20032;-60
2023/02/26 03:21:50;;;;;;;2.83;1.27;;;;;;;-3.97;91.56;96803.84;5059649;28;20036;-59
2023/02/26 03:24:58;;;;;;;3.45;1.30;;;;;;;-4.30;92.18;96803.97;5058876;28;20053;-60
2023/02/26 03:27:45;;;;;;;2.65;1.73;;;;;;;-4.47;94.16;96814.59;5060335;28;20032;-60
2023/02/26 03:30:25;;;;;;;5.68;1.50;;;;;;;-4.64;93.12;96821.75;5060343;28;20068;-60
2023/02/26 03:33:09;;;;;;;3.95;1.20;;;;;;;-4.66;93.39;96817.63;5058053;28;20400;-61
2023/02/26 03:36:01;;;;;;;4.82;1.80;;;;;;;-4.72;93.68;96824.44;5052099;28;20052;-59
2023/02/26 03:38:57;;;;;;;3.65;1.10;;;;;;;-4.78;95.71;96833.00;5058016;28;20720;-61
2023/02/26 03:41:57;;;;;;;3.65;1.35;;;;;;;-4.83;95.75;96836.16;5056552;28;20056;-61
2023/02/26 03:44:33;;;;;;;2.95;1.20;;;;;;;-4.99;96.47;96831.72;5049512;28;20473;-58
2023/02/26 03:47:05;;;;;;;3.63;1.35;;;;;;;-5.05;96.68;96837.66;5054587;28;20074;-59
2023/02/26 03:49:49;;;;;;;4.50;1.85;;;;;;;-5.10;97.59;96839.00;5055545;28;20089;-61
2023/02/26 03:52:16;;;;;;;2.40;1.33;;;;;;;-5.24;98.06;96848.38;5056707;28;20668;-59
2023/02/26 03:55:06;;;;;;;5.63;1.40;;;;;;;-5.16;98.39;96842.28;5060568;28;20048;-60
2023/02/26 03:58:05;;;;;;;2.85;1.17;;;;;;;-5.05;96.61;96853.50;5043089;28;20060;-60
2023/02/26 04:00:46;;;;;;;2.08;1.30;;;;;;;-5.00;97.75;96859.94;5054423;28;20040;-60
2023/02/26 04:03:27;;;;;;;2.20;1.45;;;;;;;-4.87;98.14;96859.44;5056158;28;20049;-60
2023/02/26 04:05:55;;;;;;;4.68;1.42;;;;;;;-4.56;95.21;96860.56;5058211;28;20199;-60
2023/02/26 04:08:22;;;;;;;5.70;1.52;;;;;;;-4.79;94.13;96860.41;5059690;28;20655;-60
2023/02/26 04:10:57;;;;;;;3.95;1.70;;;;;;;-5.03;95.92;96862.91;5061881;28;20106;-60
2023/02/26 04:13:24;;;;;;;2.30;1.30;;;;;;;-4.71;97.83;96863.06;5054574;28;20047;-58
2023/02/26 04:15:51;;;;;;;2.28;1.30;;;;;;;-4.93;95.37;96861.91;5060021;28;20044;-60
2023/02/26 04:18:17;;;;;;;2.67;1.30;;;;;;;-4.93;96.52;96860.09;5065239;28;20079;-60
2023/02/26 04:20:44;;;;;;;4.47;1.60;;;;;;;-4.89;97.53;96864.06;5056392;28;20059;-60
2023/02/26 04:23:10;;;;;;;7.63;1.52;;;;;;;-5.21;96.52;96865.69;5052425;28;20052;-60
2023/02/26 04:25:37;;;;;;;3.67;1.40;;;;;;;-5.38;97.42;96860.41;5060689;28;20043;-60
2023/02/26 04:28:04;;;;;;;1.63;1.10;;;;;;;-5.48;98.03;96862.38;5055031;28;20155;-59
2023/02/26 04:30:31;;;;;;;2.97;1.42;;;;;;;-5.19;100.00;96869.03;5057908;28;20068;-60
2023/02/26 04:32:59;;;;;;;4.55;1.40;;;;;;;-4.98;96.77;96865.88;5048681;28;20091;-59
2023/02/26 04:35:26;;;;;;;7.95;1.50;;;;;;;-4.85;97.59;96865.38;5056194;28;20052;-59
2023/02/26 04:37:55;;;;;;;3.30;1.50;;;;;;;-4.93;95.96;96873.31;5056506;28;20166;-60
2023/02/26 04:40:25;;;;;;;4.00;1.50;;;;;;;-4.95;97.24;96880.56;5064415;28;20047;-60
2023/02/26 04:42:51;;;;;;;3.70;1.63;;;;;;;-4.91;98.21;96883.72;5058973;28;20102;-60
2023/02/26 04:45:22;;;;;;;5.80;1.27;;;;;;;-4.92;98.22;96882.03;5056431;28;20051;-59
2023/02/26 04:47:49;;;;;;;5.00;1.65;;;;;;;-4.90;100.00;96891.44;5064140;28;20037;-60
2023/02/26 04:50:16;;;;;;;3.00;1.63;;;;;;;-4.90;98.32;96891.44;5051668;28;20526;-60
2023/02/26 04:52:44;;;;;;;6.38;1.40;;;;;;;-4.83;98.27;96886.34;5061809;28;20045;-60
2023/02/26 04:55:11;;;;;;;4.35;1.48;;;;;;;-5.04;97.17;96892.94;5059130;28;20059;-61
2023/02/26 04:57:38;;;;;;;3.60;1.52;;;;;;;-5.02;98.71;96898.06;5053199;28;20048;-60
2023/02/26 05:00:08;;;;;;;5.22;1.65;;;;;;;-5.03;98.25;96904.31;5055851;28;20646;-60
2023/02/26 05:02:36;;;;;;;7.72;1.65;;;;;;;-4.92;98.58;96895.25;5052002;28;20571;-60
2023/02/26 05:05:04;;;;;;;3.50;1.58;;;;;;;-4.88;98.74;96899.22;5060829;28;20050;-61
2023/02/26 05:07:30;;;;;;;4.50;1.75;;;;;;;-4.91;98.41;96899.56;5055551;28;20080;-60
2023/02/26 05:09:57;;;;;;;3.78;1.95;;;;;;;-4.66;99.30;96899.53;5059438;28;20105;-60
2023/02/26 05:12:23;;;;;;;3.13;1.60;;;;;;;-4.76;96.70;96905.81;5067179;28;20041;-61
2023/02/26 05:14:50;;;;;;;4.68;1.60;;;;;;;-4.73;97.21;96896.72;5057836;28;20578;-61
2023/02/26 05:17:16;;;;;;;3.08;1.65;;;;;;;-4.67;95.92;96903.16;5062437;28;20047;-60
2023/02/26 05:19:43;;;;;;;4.35;1.60;;;;;;;-4.63;96.67;96902.69;5058657;28;20101;-60
2023/02/26 05:22:09;;;;;;;5.95;2.08;;;;;;;-4.39;95.98;96913.38;5056491;28;20128;-61
2023/02/26 05:24:36;;;;;;;4.63;1.73;;;;;;;-4.26;95.89;96907.56;5053479;28;20885;-61
2023/02/26 05:27:02;;;;;;;4.63;1.73;;;;;;;-4.20;93.90;96909.53;5065360;28;20043;-61
2023/02/26 05:29:30;;;;;;;5.80;2.13;;;;;;;-4.03;92.55;96902.38;5054196;28;20055;-61
2023/02/26 05:32:01;;;;;;;4.30;1.45;;;;;;;-4.00;92.15;96906.50;5065399;28;20036;-61
2023/02/26 05:34:27;;;;;;;5.35;1.70;;;;;;;-4.05;92.21;96913.09;5059056;28;20055;-60
2023/02/26 05:36:54;;;;;;;2.95;1.48;;;;;;;-4.15;93.21;96923.06;5065222;28;20082;-61
2023/02/26 05:39:20;;;;;;;3.70;1.65;;;;;;;-4.29;94.31;96914.00;5063371;28;20046;-60
2023/02/26 05:41:47;;;;;;;5.30;2.10;;;;;;;-4.47;95.45;96922.13;5055474;28;20253;-58
2023/02/26 05:44:13;;;;;;;6.15;1.65;;;;;;;-4.59;96.51;96922.50;5051908;28;20106;-58
2023/02/26 05:46:40;;;;;;;3.53;1.80;;;;;;;-4.52;98.05;96927.09;5058431;28;20561;-60
2023/02/26 05:49:06;;;;;;;4.70;2.10;;;;;;;-4.41;96.10;96926.75;5054836;28;20123;-57
2023/02/26 05:51:33;;;;;;;5.65;2.38;;;;;;;-4.32;94.96;96933.69;5054893;28;20674;-60
2023/02/26 05:53:59;;;;;;;3.70;1.90;;;;;;;-4.23;93.64;96929.22;5056557;28;20045;-59
2023/02/26 05:56:26;;;;;;;3.78;2.13;;;;;;;-4.12;92.83;96930.66;5059160;28;20574;-61
2023/02/26 05:58:53;;;;;;;3.25;1.90;;;;;;;-4.05;92.06;96934.28;5059954;28;20609;-59
2023/02/26 06:01:19;;;;;;;4.53;1.73;;;;;;;-4.02;91.06;96938.38;5059469;28;20177;-57
2023/02/26 06:03:46;;;;;;;2.58;1.38;;;;;;;-3.92;90.39;96940.84;5059494;28;20075;-58
2023/02/26 06:06:15;;;;;;;4.80;1.65;;;;;;;-3.89;90.47;96951.09;5059555;28;20185;-57
2023/02/26 06:08:41;;;;;;;4.15;1.63;;;;;;;-3.80;90.06;96958.00;5059365;28;20041;-59
2023/02/26 06:11:08;;;;;;;3.90;1.52;;;;;;;-3.77;89.83;96961.31;5055315;28;20052;-58
2023/02/26 06:13:34;;;;;;;4.38;1.67;;;;;;;-3.75;89.14;96964.59;5053597;28;20068;-59
2023/02/26 06:16:01;;;;;;;6.55;2.00;;;;;;;-3.78;89.43;96965.78;5057675;28;20663;-59
2023/02/26 06:18:27;;;;;;;3.53;1.55;;;;;;;-3.76;89.48;96966.41;5059260;28;20041;-59
2023/02/26 06:20:54;;;;;;;5.50;2.13;;;;;;;-3.72;88.75;96970.38;5054042;28;20079;-59
2023/02/26 06:23:20;;;;;;;6.88;1.80;;;;;;;-3.68;88.05;96974.31;5055451;28;20032;-59
2023/02/26 06:25:49;;;;;;;3.67;1.70;;;;;;;-3.69;88.31;96971.88;5068228;28;20090;-59
2023/02/26 06:28:16;;;;;;;3.00;1.65;;;;;;;-3.83;89.56;96981.34;5059603;28;20044;-59
2023/02/26 06:30:43;;;;;;;3.88;2.13;;;;;;;-3.81;89.17;96984.63;5062705;28;20480;-59
2023/02/26 06:33:11;;;;;;;7.18;2.67;;;;;;;-3.84;89.90;96979.69;5056895;28;20455;-59
2023/02/26 06:35:37;;;;;;;5.05;2.25;;;;;;;-3.80;89.59;96997.69;5057532;28;20048;-59
2023/02/26 06:38:04;;;;;;;4.15;1.95;;;;;;;-3.74;89.48;96990.91;5061986;28;20040;-60
2023/02/26 06:40:30;;;;;;;5.22;1.95;;;;;;;-3.75;89.41;96991.91;5060530;28;20044;-59
2023/02/26 06:42:57;;;;;;;4.28;1.75;;;;;;;-3.80;89.24;96997.69;5054426;28;20110;-59
2023/02/26 06:45:24;;;;;;;11.77;2.75;;;;;;;-3.69;88.47;97008.91;5062216;28;21206;-59
2023/02/26 06:47:50;;;;;;;6.53;1.80;;;;;;;-3.66;88.54;97011.22;5059410;28;20068;-58
2023/02/26 06:50:17;;;;;;;7.45;1.80;;;;;;;-3.53;87.92;97016.78;5055586;28;20105;-56
2023/02/26 06:52:44;;;;;;;2.85;1.42;;;;;;;-3.51;88.76;97021.09;5060461;28;20082;-58
2023/02/26 06:55:10;;;;;;;2.08;1.33;;;;;;;-3.54;89.27;97024.91;5059238;28;20048;-58
2023/02/26 06:57:37;;;;;;;2.83;1.40;;;;;;;-3.45;88.96;97025.69;5059813;28;20658;-58
2023/02/26 07:00:06;;;;;;;5.53;2.17;;;;;;;-3.35;89.32;97029.00;5062210;28;20044;-57
2023/02/26 07:02:32;;;;;;;4.65;1.65;;;;;;;-3.33;88.15;97042.88;5060118;28;20055;-59
2023/02/26 07:04:59;;;;;;;3.78;1.70;;;;;;;-3.34;88.40;97046.53;5062755;28;20048;-57
2023/02/26 07:07:26;;;;;;;5.85;1.90;;;;;;;-3.47;88.73;97039.09;5059364;28;20032;-57
2023/02/26 07:09:52;;;;;;;5.90;2.35;;;;;;;-3.33;87.25;97039.38;5067584;28;20045;-59
2023/02/26 07:12:19;;;;;;;3.85;1.92;;;;;;;-3.34;87.84;97053.63;5059392;28;20041;-58
2023/02/26 07:14:45;;;;;;;5.25;1.90;;;;;;;-3.16;86.70;97053.41;5057930;28;20045;-58
2023/02/26 07:17:19;;;;;;;5.10;2.65;;;;;;;-3.22;87.44;97054.91;5059061;28;20056;-58
2023/02/26 07:19:51;;;;;;;4.75;2.05;;;;;;;-3.17;87.13;97054.41;5067895;28;20047;-56
2023/02/26 07:22:19;;;;;;;6.78;2.33;;;;;;;-2.99;86.62;97064.72;5062400;28;20626;-58
2023/02/26 07:24:48;;;;;;;5.03;2.22;;;;;;;-3.13;86.26;97069.75;5059461;28;20102;-59
2023/02/26 07:27:15;;;;;;;3.53;1.85;;;;;;;-2.89;85.74;97059.22;5061324;28;20039;-58
2023/02/26 07:29:41;;;;;;;4.47;2.05;;;;;;;-2.79;85.11;97062.50;5068098;28;20986;-57
2023/02/26 07:32:08;;;;;;;3.63;1.75;;;;;;;-2.78;85.51;97063.31;5065344;28;20040;-55
2023/02/26 07:34:34;;;;;;;6.07;2.05;;;;;;;-2.94;86.24;97067.72;5062545;28;20056;-57
2023/02/26 07:37:01;;;;;;;5.50;2.72;;;;;;;-3.03;87.17;97072.22;5062980;28;20043;-58
2023/02/26 07:39:28;;;;;;;4.78;2.28;;;;;;;-2.86;86.43;97077.44;5057651;28;20036;-56
2023/02/26 07:41:54;;;;;;;5.45;1.88;;;;;;;-2.64;85.35;97064.38;5058333;28;20041;-58
2023/02/26 07:44:20;;;;;;;4.32;2.22;;;;;;;-2.96;86.67;97069.69;5063755;28;20485;-58
2023/02/26 07:46:47;;;;;;;3.20;1.60;;;;;;;-2.84;86.37;97075.41;5062218;28;20053;-58
2023/02/26 07:49:13;;;;;;;5.25;2.00;;;;;;;-2.69;85.90;97077.34;5059595;28;20035;-59
2023/02/26 07:51:44;;;;;;;3.28;1.65;;;;;;;-2.90;86.49;97073.47;5059172;28;20466;-57
2023/02/26 07:54:12;;;;;;;9.63;1.95;;;;;;;-2.61;85.74;97079.94;5062374;28;20048;-58
2023/02/26 07:56:40;;;;;;;7.43;2.08;;;;;;;-2.63;85.59;97080.13;5057579;28;20045;-58
2023/02/26 07:59:06;;;;;;;6.53;2.20;;;;;;;-2.41;84.81;97090.09;5067558;28;20119;-58
2023/02/26 08:01:33;;;;;;;5.95;2.40;;;;;;;-2.47;84.32;97080.19;5060384;28;20110;-58
2023/02/26 08:03:59;;;;;;;11.20;2.22;;;;;;;-2.47;84.71;97090.81;5062832;28;20071;-57
2023/02/26 08:06:26;;;;;;;6.10;2.35;;;;;;;-2.64;85.60;97086.44;5062520;28;20411;-58
2023/02/26 08:08:53;;;;;;;4.57;1.58;;;;;;;-2.78;85.37;97088.00;5074224;28;20139;-57
2023/02/26 08:11:20;;;;;;;2.75;1.80;;;;;;;-2.76;85.89;97090.47;5061911;28;20036;-56
2023/02/26 08:13:47;;;;;;;4.88;1.75;;;;;;;-2.62;85.64;97087.06;5071358;28;20047;-57
2023/02/26 08:16:13;;;;;;;4.07;1.70;;;;;;;-2.52;84.60;97081.53;5069912;28;20098;-57
2023/02/26 08:18:40;;;;;;;3.47;1.80;;;;;;;-2.43;85.80;97092.09;5061235;28;20116;-57
2023/02/26 08:21:06;;;;;;;4.43;1.70;;;;;;;-2.60;85.35;97092.19;5064414;28;20501;-57
2023/02/26 08:23:33;;;;;;;5.28;1.83;;;;;;;-2.53;84.47;97087.84;5064747;28;20041;-56
2023/02/26 08:26:03;;;;;;;3.88;2.00;;;;;;;-2.64;85.14;97096.19;5067842;28;20036;-56
2023/02/26 08:28:30;;;;;;;3.42;1.42;;;;;;;-2.33;83.29;97092.69;5064521;28;20041;-57
2023/02/26 08:30:58;;;;;;;7.75;1.90;;;;;;;-2.51;84.37;97103.59;5065000;28;20093;-57
2023/02/26 08:33:25;;;;;;;5.57;1.48;;;;;;;-2.57;85.01;97093.66;5070832;28;20041;-58
2023/02/26 08:35:52;;;;;;;3.15;1.40;;;;;;;-2.32;84.07;97101.47;5068222;28;20045;-56
2023/02/26 08:38:19;;;;;;;4.03;1.52;;;;;;;-2.02;82.18;97101.59;5069936;28;20115;-58
2023/02/26 08:40:48;;;;;;;2.35;1.27;;;;;;;-2.01;81.27;97100.56;5070766;28;20545;-59
2023/02/26 08:43:15;;;;;;;7.63;2.08;;;;;;;-1.94;81.17;97111.31;5062997;28;20041;-60
2023/02/26 08:45:41;;;;;;;4.25;2.25;;;;;;;-1.80;80.78;97110.53;5070462;28;20131;-60
2023/02/26 08:48:08;;;;;;;8.68;2.63;;;;;;;-1.85;79.96;97107.56;5064689;28;20545;-59
2023/02/26 08:50:36;;;;;;;7.03;1.75;;;;;;;-1.67;79.89;97111.75;5070905;28;20044;-57
2023/02/26 08:53:03;;;;;;;2.10;1.27;;;;;;;-1.79;80.53;97116.66;5067677;28;20055;-56
2023/02/26 08:55:29;;;;;;;3.22;1.10;;;;;;;-1.81;81.75;97121.31;5063584;28;20113;-56
2023/02/26 08:57:56;;;;;;;4.82;1.33;;;;;;;-1.56;82.24;97116.59;5068673;28;20076;-55
2023/02/26 09:00:22;;;;;;;5.13;1.58;;;;;;;-1.47;80.45;97117.38;5060367;28;20137;-57
2023/02/26 09:02:49;;;;;;;2.75;1.15;;;;;;;-1.46;80.04;97125.16;5068562;28;20071;-54
2023/02/26 09:05:16;;;;;;;5.85;1.63;;;;;;;-1.51;81.72;97113.41;5061284;28;20052;-58
2023/02/26 09:07:43;;;;;;;5.22;1.77;;;;;;;-1.52;81.94;97123.22;5062869;28;20044;-57
2023/02/26 09:10:11;;;;;;;4.68;1.23;;;;;;;-1.36;82.93;97130.19;5061689;28;20063;-58
2023/02/26 09:12:38;;;;;;;3.22;1.35;;;;;;;-1.60;84.10;97128.59;5060851;28;20102;-58
2023/02/26 09:15:06;;;;;;;5.13;2.22;;;;;;;-1.79;85.92;97121.97;5060426;28;20101;-58
2023/02/26 09:17:33;;;;;;;3.53;1.42;;;;;;;-2.20;87.64;97142.50;5059571;28;20048;-55
2023/02/26 09:20:00;;;;;;;7.05;1.33;;;;;;;-2.13;86.66;97137.31;5062164;28;20135;-59
2023/02/26 09:22:26;;;;;;;5.20;2.67;;;;;;;-2.41;87.71;97151.06;5061608;28;20640;-59
2023/02/26 09:24:52;;;;;;;6.20;2.65;;;;;;;-2.40;89.26;97156.22;5062401;28;20098;-59
2023/02/26 09:27:19;;;;;;;8.60;2.13;;;;;;;-2.23;88.64;97156.94;5059421;28;20515;-54
2023/02/26 09:29:45;;;;;;;8.65;3.75;;;;;;;-2.41;89.53;97159.88;5061176;28;20106;-58
2023/02/26 09:32:12;;;;;;;3.72;1.90;;;;;;;-2.16;87.23;97166.84;5059539;28;20105;-59
2023/02/26 09:34:39;;;;;;;2.95;1.23;;;;;;;-2.09;87.01;97167.81;5062176;28;20048;-59
2023/02/26 09:37:07;;;;;;;6.95;1.77;;;;;;;-2.17;87.65;97166.03;5061860;28;20514;-59
2023/02/26 09:39:35;;;;;;;4.03;1.25;;;;;;;-1.90;86.40;97169.16;5064153;28;20163;-57
2023/02/26 09:42:34;;;;;;;13.90;3.17;;;;;;;-1.75;86.18;97173.69;5068527;28;20121;-56
2023/02/26 09:45:02;;;;;;;4.05;1.63;;;;;;;-1.68;85.39;97179.94;5064186;28;20712;-58
2023/02/26 09:47:41;;;;;;;4.90;1.90;;;;;;;-1.72;85.23;97174.19;5060065;28;20044;-57
2023/02/26 09:50:20;;;;;;;4.93;2.20;;;;;;;-1.55;85.75;97176.66;5061029;28;20101;-58
2023/02/26 09:53:21;;;;;;;6.15;2.08;;;;;;;-1.64;86.02;97178.59;5064044;28;20044;-59
2023/02/26 09:55:50;;;;;;;5.13;3.05;;;;;;;-1.83;85.45;97177.25;5065486;28;20752;-60
2023/02/26 09:58:25;;;;;;;5.32;2.45;;;;;;;-2.04;87.50;97168.09;5063248;28;20044;-56
2023/02/26 10:01:03;;;;;;;3.15;1.73;;;;;;;-1.88;87.67;97169.78;5065098;28;20115;-57
2023/02/26 10:03:41;;;;;;;4.85;3.58;;;;;;;-2.07;87.98;97168.44;5061520;28;20072;-57
2023/02/26 10:06:15;;;;;;;4.63;1.70;;;;;;;-1.81;87.39;97185.03;5062214;28;20446;-57
2023/02/26 10:09:13;;;;;;;3.08;1.60;;;;;;;-1.75;88.41;97179.84;5061015;28;20731;-55
2023/02/26 10:12:06;;;;;;;3.58;2.08;;;;;;;-1.91;89.11;97185.25;5061710;28;20045;-55
2023/02/26 10:14:43;;;;;;;5.35;1.95;;;;;;;-2.14;90.70;97180.78;5063361;28;20684;-57
2023/02/26 10:17:34;;;;;;;4.40;2.20;;;;;;;-1.97;90.43;97184.13;5063130;28;20040;-57
2023/02/26 10:20:19;;;;;;;5.20;1.48;;;;;;;-1.84;90.78;97186.22;5062617;28;20051;-55
2023/02/26 10:23:03;;;;;;;7.78;2.53;;;;;;;-1.98;90.29;97188.59;5064372;28;20063;-58
2023/02/26 10:25:47;;;;;;;3.97;2.35;;;;;;;-1.75;89.10;97194.94;5062704;28;20090;-58
2023/02/26 10:28:13;;;;;;;5.80;1.98;;;;;;;-1.80;88.30;97195.47;5063866;28;20056;-58
2023/02/26 10:31:05;;;;;;;3.90;1.83;;;;;;;-1.51;88.33;97193.09;5059291;28;20573;-58
2023/02/26 10:33:42;;;;;;;8.57;3.80;;;;;;;-1.60;88.40;97193.16;5060410;28;20127;-58
2023/02/26 10:36:24;;;;;;;8.82;2.95;;;;;;;-1.61;86.42;97201.28;5060613;28;20414;-58
2023/02/26 10:39:00;;;;;;;4.43;2.13;;;;;;;-1.53;86.07;97195.09;5067461;28;20032;-58
2023/02/26 10:41:30;;;;;;;6.85;2.63;;;;;;;-1.34;84.14;97199.06;5060216;28;20123;-58
2023/02/26 10:44:05;;;;;;;9.23;2.08;;;;;;;-1.45;83.05;97190.53;5061471;28;20052;-57
2023/02/26 10:46:43;;;;;;;6.82;2.33;;;;;;;-1.34;82.98;97199.06;5059732;28;20049;-58
2023/02/26 10:49:26;;;;;;;5.25;3.08;;;;;;;-1.05;82.08;97205.44;5066418;28;20396;-58
2023/02/26 10:51:54;;;;;;;5.25;3.00;;;;;;;-1.13;81.89;97197.56;5059593;28;20037;-54
2023/02/26 10:54:28;;;;;;;6.40;2.63;;;;;;;-1.08;80.54;97203.97;5062112;28;20527;-58
2023/02/26 10:56:55;;;;;;;2.90;1.63;;;;;;;-1.07;80.87;97202.97;5059298;28;20427;-59
2023/02/26 10:59:22;;;;;;;9.60;4.22;;;;;;;-1.06;81.25;97201.94;5068212;28;20085;-58
2023/02/26 11:01:51;;;;;;;9.38;4.72;;;;;;;-1.02;80.77;97212.22;5064327;28;20087;-56
2023/02/26 11:04:22;;;;;;;7.93;4.03;;;;;;;-1.14;80.64;97211.84;5057506;28;20046;-58
2023/02/26 11:07:00;;;;;;;7.72;3.33;;;;;;;-1.01;80.55;97213.88;5059978;28;20106;-56
2023/02/26 11:09:42;;;;;;;8.52;3.22;;;;;;;-1.22;81.82;97210.91;5069449;28;20086;-56
2023/02/26 11:12:12;;;;;;;5.25;1.95;;;;;;;-1.25;81.64;97205.94;5063989;28;20037;-53
2023/02/26 11:14:41;;;;;;;10.52;5.95;;;;;;;-1.13;81.93;97208.19;5065512;28;20079;-56
2023/02/26 11:17:28;;;;;;;4.70;2.47;;;;;;;-0.89;81.56;97209.75;5062856;28;20085;-56
2023/02/26 11:19:58;;;;;;;4.55;2.40;;;;;;;-0.74;79.85;97209.75;5056328;28;20115;-57
2023/02/26 11:22:28;;;;;;;4.70;1.92;;;;;;;-0.90;79.62;97205.47;5070529;28;20521;-56
2023/02/26 11:24:55;;;;;;;4.43;2.00;;;;;;;-1.01;80.22;97206.72;5061946;28;20571;-57
2023/02/26 11:27:30;;;;;;;3.40;1.42;;;;;;;-1.18;80.98;97211.41;5061588;28;20662;-57
2023/02/26 11:30:02;;;;;;;2.47;1.40;;;;;;;-1.22;81.11;97215.41;5061241;28;20078;-56
2023/02/26 11:32:35;;;;;;;4.65;2.28;;;;;;;-1.18;80.34;97206.09;5060333;28;20028;-57
2023/02/26 11:35:07;;;;;;;4.18;2.00;;;;;;;-1.34;80.38;97209.69;5059763;28;20316;-56
2023/02/26 11:37:45;;;;;;;3.67;1.60;;;;;;;-1.22;79.63;97205.59;5056351;28;20587;-55
2023/02/26 11:40:20;;;;;;;4.70;2.00;;;;;;;-1.14;78.98;97202.03;5055071;28;20043;-57
2023/02/26 11:42:53;;;;;;;8.52;2.70;;;;;;;-0.96;78.45;97204.34;5064554;28;20717;-57
2023/02/26 11:45:21;;;;;;;4.55;2.05;;;;;;;-0.64;77.38;97195.34;5070072;28;20131;-57
2023/02/26 11:47:58;;;;;;;3.75;2.00;;;;;;;-0.48;76.32;97195.16;5061008;28;20089;-57
2023/02/26 11:50:27;;;;;;;4.40;1.52;;;;;;;-0.20;75.01;97207.78;5057559;28;20048;-59
2023/02/26 11:52:56;;;;;;;3.25;1.60;;;;;;;-0.37;74.16;97198.38;5065886;28;20106;-56
2023/02/26 11:55:33;;;;;;;4.15;1.67;;;;;;;-0.38;74.36;97204.72;5063711;28;20040;-58